Time;durP1;ratioP1;P1;durP2;ratioP2;P2;SDS_P1;SDS_P2;PMS_P1;PMS_P2;Temp;Humidity;BMP_temperature;BMP_pressure;BME280_temperature;BME280_humidity;BME280_pressure;Samples;Min_cycle;Max_cycle;Signal;HPM_P1;HPM_P2
2020/12/14 00:00:37;;;;;;;103.20;46.30;;;;;;;3.83;82.21;100236.40;126293;1098;25077;-58
2020/12/14 00:03:07;;;;;;;106.23;49.63;;;;;;;3.85;82.22;100248.56;126086;1098;23306;-59
2020/12/14 00:05:36;;;;;;;102.30;49.83;;;;;;;3.87;81.95;100251.67;126023;1098;23309;-59
2020/12/14 00:08:05;;;;;;;111.70;52.80;;;;;;;3.90;82.33;100250.03;126020;1098;23336;-58
2020/12/14 00:10:34;;;;;;;98.13;48.57;;;;;;;3.94;82.36;100245.98;126211;1098;23366;-56
2020/12/14 00:13:04;;;;;;;96.47;48.20;;;;;;;3.96;81.98;100249.09;126056;1098;23455;-58
2020/12/14 00:15:33;;;;;;;102.60;48.33;;;;;;;3.97;82.44;100261.67;125984;1098;23312;-57
2020/12/14 00:18:02;;;;;;;97.83;44.70;;;;;;;3.97;81.91;100255.39;125929;1098;26817;-59
2020/12/14 00:20:31;;;;;;;89.90;41.57;;;;;;;3.93;81.97;100251.95;125949;1098;25067;-58
2020/12/14 00:23:01;;;;;;;96.77;41.33;;;;;;;3.93;82.11;100266.51;126402;1093;23303;-58
2020/12/14 00:25:30;;;;;;;104.43;44.33;;;;;;;3.93;81.91;100266.51;126078;1098;26386;-58
2020/12/14 00:27:59;;;;;;;101.40;44.00;;;;;;;3.94;82.35;100265.31;126052;1098;23320;-58
2020/12/14 00:30:28;;;;;;;98.07;47.50;;;;;;;3.98;82.37;100274.28;126028;1098;23376;-58
2020/12/14 00:32:57;;;;;;;94.37;45.97;;;;;;;3.98;81.85;100270.73;126057;1098;23317;-60
2020/12/14 00:35:27;;;;;;;95.27;45.53;;;;;;;3.95;81.77;100264.09;126058;1098;27915;-58
2020/12/14 00:37:57;;;;;;;102.65;45.03;;;;;;;3.92;82.03;100281.55;126332;1098;23525;-57
2020/12/14 00:40:29;;;;;;;102.12;45.60;;;;;;;3.93;82.17;100282.33;126059;1098;23354;-58
2020/12/14 00:42:59;;;;;;;100.85;45.75;;;;;;;3.97;82.32;100280.25;126263;1098;23305;-58
2020/12/14 00:45:28;;;;;;;109.77;47.07;;;;;;;3.99;82.23;100280.59;125992;1098;23389;-59
2020/12/14 00:47:57;;;;;;;113.75;51.95;;;;;;;4.00;82.46;100288.44;125993;1098;23542;-59
2020/12/14 00:50:26;;;;;;;128.60;63.17;;;;;;;4.03;82.41;100276.51;126019;1098;23363;-59
2020/12/14 00:52:56;;;;;;;140.43;69.60;;;;;;;4.03;82.18;100284.04;126501;1098;23320;-58
2020/12/14 00:55:25;;;;;;;154.33;73.00;;;;;;;4.02;82.12;100286.02;126044;1098;23349;-57
2020/12/14 00:57:54;;;;;;;154.97;67.33;;;;;;;4.00;82.47;100282.13;126082;1098;23457;-58
2020/12/14 01:00:23;;;;;;;162.80;72.35;;;;;;;3.99;81.93;100286.12;126086;1098;23438;-59
2020/12/14 01:02:53;;;;;;;155.85;64.90;;;;;;;3.98;82.09;100292.84;126113;1098;26487;-59
2020/12/14 01:05:22;;;;;;;138.83;62.57;;;;;;;3.98;82.19;100293.63;125987;1098;28061;-58
2020/12/14 01:07:51;;;;;;;202.00;77.80;;;;;;;3.98;82.11;100295.59;126180;1098;28142;-59
2020/12/14 01:10:20;;;;;;;130.23;56.80;;;;;;;3.96;82.17;100298.02;126217;1098;26538;-58
2020/12/14 01:12:49;;;;;;;118.15;53.20;;;;;;;3.95;82.55;100296.48;126062;1092;27588;-59
2020/12/14 01:15:19;;;;;;;111.47;50.23;;;;;;;3.93;82.39;100302.41;126056;1098;23299;-59
2020/12/14 01:17:48;;;;;;;111.80;50.97;;;;;;;3.91;82.30;100304.83;126088;1098;23480;-58
2020/12/14 01:20:17;;;;;;;110.50;47.27;;;;;;;3.92;82.27;100311.92;126046;1098;23329;-60
2020/12/14 01:22:46;;;;;;;113.83;52.30;;;;;;;3.95;82.46;100304.77;126266;1098;24823;-60
2020/12/14 01:25:15;;;;;;;103.87;49.33;;;;;;;3.95;82.49;100302.00;126613;1098;28992;-58
2020/12/14 01:27:44;;;;;;;120.90;55.13;;;;;;;3.95;82.63;100305.52;126405;1098;23305;-60
2020/12/14 01:30:14;;;;;;;120.47;55.77;;;;;;;3.95;82.53;100308.28;126449;1098;28475;-60
2020/12/14 01:32:43;;;;;;;113.63;51.13;;;;;;;3.96;82.45;100306.30;126394;1098;23317;-59
2020/12/14 01:35:12;;;;;;;114.90;48.93;;;;;;;3.97;82.43;100305.11;126434;1098;25052;-59
2020/12/14 01:37:41;;;;;;;100.53;42.73;;;;;;;3.95;82.39;100305.52;126388;1098;23292;-58
2020/12/14 01:40:10;;;;;;;94.00;43.47;;;;;;;3.94;82.45;100306.74;126442;1098;23351;-59
2020/12/14 01:42:40;;;;;;;93.87;44.07;;;;;;;3.98;82.44;100309.41;126438;1098;23423;-60
2020/12/14 01:45:10;;;;;;;98.33;44.65;;;;;;;3.98;82.58;100312.95;126516;1098;23438;-58
2020/12/14 01:47:42;;;;;;;100.70;48.17;;;;;;;3.99;82.25;100303.44;126374;1098;23281;-60
2020/12/14 01:50:13;;;;;;;104.53;46.90;;;;;;;3.98;82.55;100299.14;126626;1098;23360;-61
2020/12/14 01:52:53;;;;;;;97.75;44.58;;;;;;;3.99;82.30;100295.16;126384;1098;23278;-60
2020/12/14 01:55:21;;;;;;;;;;;;;;;3.96;82.47;100296.04;126518;1098;23307;-59
2020/12/14 01:57:51;;;;;;;98.17;45.23;;;;;;;3.96;82.40;100284.20;126340;1098;24199;-58
2020/12/14 02:00:20;;;;;;;104.50;48.23;;;;;;;3.97;82.39;100283.77;126461;1098;23474;-59
2020/12/14 02:02:50;;;;;;;109.77;51.30;;;;;;;3.98;82.44;100281.79;126331;1098;23376;-62
2020/12/14 02:05:19;;;;;;;108.90;50.77;;;;;;;3.97;82.46;100286.53;126523;1098;23363;-59
2020/12/14 02:07:49;;;;;;;104.30;50.37;;;;;;;3.95;82.36;100286.19;126425;1098;25382;-64
2020/12/14 02:10:18;;;;;;;102.47;44.93;;;;;;;3.93;82.34;100283.08;126427;1098;24928;-59
2020/12/14 02:12:47;;;;;;;100.10;43.80;;;;;;;3.91;82.26;100290.27;126384;1098;23268;-61
2020/12/14 02:15:16;;;;;;;94.23;42.30;;;;;;;3.88;82.45;100286.38;126380;1098;23332;-60
2020/12/14 02:17:46;;;;;;;94.90;42.17;;;;;;;3.91;82.68;100284.75;126490;1098;23416;-59
2020/12/14 02:20:15;;;;;;;93.80;42.77;;;;;;;3.90;82.31;100281.20;126367;1098;23317;-58
2020/12/14 02:22:45;;;;;;;86.03;43.70;;;;;;;3.91;82.46;100279.98;126356;1098;25015;-62
2020/12/14 02:25:14;;;;;;;92.30;42.40;;;;;;;3.90;82.58;100283.96;126426;1098;23363;-60
2020/12/14 02:27:45;;;;;;;93.83;39.60;;;;;;;3.91;82.59;100290.27;126332;1098;23371;-60
2020/12/14 02:30:15;;;;;;;96.17;41.93;;;;;;;3.93;82.49;100296.14;126360;1098;23435;-61
2020/12/14 02:32:44;;;;;;;95.28;41.45;;;;;;;3.93;82.35;100294.13;126696;1098;23366;-58
2020/12/14 02:35:14;;;;;;;94.03;43.97;;;;;;;3.94;82.51;100298.45;126402;1098;23666;-59
2020/12/14 02:37:44;;;;;;;88.47;43.60;;;;;;;3.95;82.55;100300.00;126412;1098;24056;-59
2020/12/14 02:40:14;;;;;;;90.23;43.53;;;;;;;3.93;82.54;100288.61;126420;1098;23350;-60
2020/12/14 02:42:43;;;;;;;96.32;42.62;;;;;;;3.95;82.44;100288.20;126482;1098;26346;-61
2020/12/14 02:45:12;;;;;;;93.87;38.23;;;;;;;3.93;82.53;100285.84;126622;1098;23514;-61
2020/12/14 02:47:41;;;;;;;100.83;40.27;;;;;;;3.93;82.66;100290.61;126435;1098;23326;-60
2020/12/14 02:50:10;;;;;;;88.20;38.40;;;;;;;3.91;82.36;100293.03;126389;1098;28365;-58
2020/12/14 02:52:40;;;;;;;91.27;40.37;;;;;;;3.90;82.40;100288.70;126478;1093;27129;-58
2020/12/14 02:55:09;;;;;;;90.53;41.77;;;;;;;3.92;82.58;100283.52;126674;1099;23505;-60
2020/12/14 02:57:38;;;;;;;90.70;42.07;;;;;;;3.93;82.51;100287.85;126639;1098;26780;-57
2020/12/14 03:00:07;;;;;;;84.23;40.37;;;;;;;3.93;82.27;100290.61;126417;1098;27118;-60
2020/12/14 03:02:36;;;;;;;84.90;35.70;;;;;;;3.93;82.56;100298.90;126526;1098;23305;-56
2020/12/14 03:05:06;;;;;;;83.00;37.47;;;;;;;3.92;82.42;100306.41;126463;1098;25013;-60
2020/12/14 03:07:35;;;;;;;90.17;37.23;;;;;;;3.93;82.57;100307.94;126701;1099;23314;-59
2020/12/14 03:10:06;;;;;;;87.20;38.80;;;;;;;3.95;82.71;100302.76;126395;1098;23549;-58
2020/12/14 03:12:33;;;;;;;;;;;;;;;3.98;82.43;100309.41;126866;1098;23387;-58
2020/12/14 03:15:03;;;;;;;93.67;40.57;;;;;;;4.00;82.48;100310.54;126468;1098;21493;-58
2020/12/14 03:17:32;;;;;;;88.35;41.05;;;;;;;4.05;82.22;100309.24;126412;1098;25017;-60
2020/12/14 03:20:01;;;;;;;91.00;42.37;;;;;;;4.05;82.66;100306.48;126397;1098;26786;-59
2020/12/14 03:22:31;;;;;;;89.00;40.10;;;;;;;4.06;82.33;100296.97;126390;1098;28940;-59
2020/12/14 03:25:00;;;;;;;92.92;39.80;;;;;;;4.06;82.23;100299.73;126509;1098;23306;-58
2020/12/14 03:27:31;;;;;;;92.10;38.73;;;;;;;4.06;82.34;100306.04;126387;1098;23290;-61
2020/12/14 03:29:59;;;;;;;;;;;;;;;4.04;82.21;100310.44;126408;1098;23337;-61
2020/12/14 03:32:28;;;;;;;79.57;37.20;;;;;;;4.04;82.32;100302.94;126512;1098;21499;-59
2020/12/14 03:34:58;;;;;;;86.40;40.67;;;;;;;4.03;82.46;100306.89;126428;1098;23373;-58
2020/12/14 03:37:29;;;;;;;93.73;42.77;;;;;;;4.02;82.39;100316.41;126441;1098;23363;-58
2020/12/14 03:39:58;;;;;;;89.77;40.10;;;;;;;4.00;82.24;100306.98;126644;1098;23305;-60
2020/12/14 03:42:29;;;;;;;89.70;40.20;;;;;;;3.98;82.63;100318.48;126374;1098;23285;-59
2020/12/14 03:44:59;;;;;;;84.83;38.03;;;;;;;3.98;82.40;100309.41;126465;1098;25070;-57
2020/12/14 03:47:31;;;;;;;95.27;38.70;;;;;;;3.99;82.37;100306.20;126586;1098;28222;-60
2020/12/14 03:50:01;;;;;;;88.50;40.53;;;;;;;3.98;82.54;100307.43;126376;1098;23357;-59
2020/12/14 03:52:30;;;;;;;92.23;42.43;;;;;;;3.98;82.38;100312.95;126434;1098;23374;-62
2020/12/14 03:55:00;;;;;;;92.35;42.25;;;;;;;4.02;82.60;100318.38;126413;1093;27207;-58
2020/12/14 03:57:31;;;;;;;91.78;40.92;;;;;;;4.00;82.72;100309.75;126418;1098;27833;-61
2020/12/14 04:00:01;;;;;;;89.17;41.20;;;;;;;4.02;82.40;100308.12;126467;1099;27996;-59
2020/12/14 04:02:32;;;;;;;86.60;40.03;;;;;;;4.02;82.23;100326.67;126487;1098;23433;-58
2020/12/14 04:05:01;;;;;;;91.77;39.40;;;;;;;4.01;82.22;100328.65;126364;1098;24980;-60
2020/12/14 04:07:30;;;;;;;94.67;42.23;;;;;;;4.00;82.44;100316.06;126366;1098;24841;-58
2020/12/14 04:10:00;;;;;;;100.83;44.77;;;;;;;3.98;82.41;100326.77;126489;1098;23320;-58
2020/12/14 04:12:30;;;;;;;99.65;43.08;;;;;;;3.98;82.32;100328.74;126540;1098;23415;-60
2020/12/14 04:14:59;;;;;;;95.57;45.47;;;;;;;3.99;82.50;100333.83;126465;1098;25068;-59
2020/12/14 04:17:29;;;;;;;94.15;45.03;;;;;;;3.97;82.30;100325.20;126411;1098;23329;-58
2020/12/14 04:19:59;;;;;;;94.40;43.90;;;;;;;3.98;82.56;100334.27;126384;1098;23366;-61
2020/12/14 04:22:28;;;;;;;97.97;45.53;;;;;;;3.98;82.40;100325.98;126419;1098;23492;-58
2020/12/14 04:24:57;;;;;;;92.73;43.20;;;;;;;3.97;82.52;100327.20;126499;1098;23363;-58
2020/12/14 04:27:27;;;;;;;102.03;41.60;;;;;;;3.96;82.57;100328.41;126425;1098;23363;-59
2020/12/14 04:29:56;;;;;;;94.47;43.05;;;;;;;3.94;82.45;100328.05;126530;1098;23430;-58
2020/12/14 04:32:26;;;;;;;99.57;43.87;;;;;;;3.93;82.47;100337.56;126571;1098;23507;-58
2020/12/14 04:34:55;;;;;;;92.65;44.45;;;;;;;3.93;82.64;100324.52;126457;1098;26817;-60
2020/12/14 04:37:24;;;;;;;88.87;41.80;;;;;;;3.95;82.68;100316.56;126578;1098;25071;-60
2020/12/14 04:39:54;;;;;;;93.80;45.20;;;;;;;3.98;82.64;100324.00;126509;1098;23294;-60
2020/12/14 04:42:25;;;;;;;99.55;44.93;;;;;;;3.96;82.56;100329.19;126458;1099;23325;-61
2020/12/14 04:44:56;;;;;;;93.65;45.83;;;;;;;3.95;82.44;100330.38;126529;1098;23309;-57
2020/12/14 04:47:27;;;;;;;98.97;43.13;;;;;;;3.91;82.20;100337.98;126435;1098;23309;-59
2020/12/14 04:49:58;;;;;;;101.75;45.75;;;;;;;3.90;82.47;100338.41;126590;1098;23315;-61
2020/12/14 04:52:29;;;;;;;107.70;46.17;;;;;;;3.90;82.48;100350.25;126436;1093;25016;-61
2020/12/14 04:54:58;;;;;;;111.95;50.75;;;;;;;3.91;82.52;100353.80;126518;1098;26295;-60
2020/12/14 04:57:31;;;;;;;93.87;49.00;;;;;;;3.92;82.16;100353.35;126513;1098;28368;-58
2020/12/14 05:00:01;;;;;;;98.87;47.37;;;;;;;3.94;82.92;100352.91;126598;1098;27135;-58
2020/12/14 05:02:30;;;;;;;91.90;43.23;;;;;;;3.93;82.46;100354.14;126911;1098;23521;-58
2020/12/14 05:05:00;;;;;;;94.23;45.30;;;;;;;3.92;82.34;100349.81;126677;1098;23381;-58
2020/12/14 05:07:43;;;;;;;85.20;41.48;;;;;;;3.90;82.55;100347.48;126953;1098;23378;-58
2020/12/14 05:10:13;;;;;;;96.07;42.43;;;;;;;3.88;82.34;100344.38;126549;1098;23416;-61
2020/12/14 05:12:43;;;;;;;99.70;44.38;;;;;;;3.87;82.70;100342.81;126699;1098;29487;-58
2020/12/14 05:15:24;;;;;;;103.38;43.23;;;;;;;3.87;82.51;100348.33;126557;1098;23380;-58
2020/12/14 05:18:07;;;;;;;98.00;43.27;;;;;;;3.87;82.46;100339.30;126501;1098;26341;-61
2020/12/14 05:20:37;;;;;;;94.20;45.73;;;;;;;3.85;82.52;100347.98;126406;1098;23406;-61
2020/12/14 05:23:08;;;;;;;107.67;49.98;;;;;;;3.85;82.59;100341.68;126310;1093;26285;-60
2020/12/14 05:25:37;;;;;;;107.83;49.10;;;;;;;3.85;82.56;100347.98;126340;1098;23339;-58
2020/12/14 05:28:12;;;;;;;101.00;47.50;;;;;;;3.84;82.60;100345.66;126151;1098;23306;-61
2020/12/14 05:30:44;;;;;;;107.50;46.17;;;;;;;3.80;82.56;100345.76;126236;1098;23359;-60
2020/12/14 05:33:15;;;;;;;107.67;47.33;;;;;;;3.78;82.53;100359.22;126276;1098;23405;-60
2020/12/14 05:35:47;;;;;;;105.17;44.67;;;;;;;3.78;82.54;100345.41;126398;1098;23867;-58
2020/12/14 05:38:18;;;;;;;106.60;47.80;;;;;;;3.77;82.58;100354.89;126301;1098;23882;-57
2020/12/14 05:40:51;;;;;;;105.70;49.57;;;;;;;3.81;82.73;100355.58;126372;1098;23889;-59
2020/12/14 05:43:22;;;;;;;110.30;49.10;;;;;;;3.83;82.84;100358.69;126358;1098;26337;-57
2020/12/14 05:45:52;;;;;;;104.43;50.40;;;;;;;3.86;82.91;100366.13;126469;1098;23292;-59
2020/12/14 05:48:29;;;;;;;102.53;49.83;;;;;;;3.89;82.79;100358.97;126478;1098;23282;-57
2020/12/14 05:51:01;;;;;;;109.77;51.17;;;;;;;3.87;82.55;100359.37;126424;1098;23310;-57
2020/12/14 05:53:36;;;;;;;116.57;49.40;;;;;;;3.86;82.58;100363.36;126794;1098;26298;-57
2020/12/14 05:56:07;;;;;;;103.70;48.35;;;;;;;3.85;82.56;100377.58;126555;1098;23357;-57
2020/12/14 05:58:37;;;;;;;116.80;50.00;;;;;;;3.83;82.77;100377.23;127052;1098;27830;-57
2020/12/14 06:01:10;;;;;;;108.00;47.67;;;;;;;3.83;82.71;100369.73;126370;1098;23308;-57
2020/12/14 06:03:40;;;;;;;113.17;49.30;;;;;;;3.85;82.43;100378.36;126371;1099;23360;-57
2020/12/14 06:06:10;;;;;;;107.93;51.27;;;;;;;3.83;82.41;100383.54;127492;1098;26728;-57
2020/12/14 06:09:03;;;;;;;114.32;52.73;;;;;;;3.78;82.61;100381.31;126463;1098;23438;-57
2020/12/14 06:11:36;;;;;;;116.05;51.55;;;;;;;3.78;82.49;100378.55;126501;1098;23413;-56
2020/12/14 06:14:09;;;;;;;103.87;50.10;;;;;;;3.77;82.40;100388.02;126524;1098;23446;-57
2020/12/14 06:16:45;;;;;;;108.30;48.87;;;;;;;3.75;82.48;100401.48;126412;1099;23369;-57
2020/12/14 06:19:14;;;;;;;112.20;48.40;;;;;;;3.69;82.28;100405.17;126422;1099;23380;-56
2020/12/14 06:21:47;;;;;;;112.50;48.07;;;;;;;3.63;82.25;100413.20;126259;1098;23432;-58
2020/12/14 06:24:21;;;;;;;101.50;45.83;;;;;;;3.53;82.18;100397.65;126497;1099;27876;-57
2020/12/14 06:26:51;;;;;;;104.33;46.80;;;;;;;3.45;82.10;100406.50;126431;1098;23386;-65
2020/12/14 06:29:32;;;;;;;97.50;45.53;;;;;;;3.39;82.26;100409.00;126256;1098;23866;-62
2020/12/14 06:32:02;;;;;;;104.45;48.02;;;;;;;3.31;82.76;100401.29;126518;1098;27981;-57
2020/12/14 06:34:43;;;;;;;100.47;47.73;;;;;;;3.34;82.65;100406.72;126639;1098;23324;-57
2020/12/14 06:37:22;;;;;;;101.75;45.50;;;;;;;3.38;82.51;100409.40;126363;1098;23364;-56
2020/12/14 06:39:59;;;;;;;103.03;45.07;;;;;;;3.39;82.36;100413.73;126347;1098;23360;-58
2020/12/14 06:42:29;;;;;;;105.37;46.37;;;;;;;3.43;82.75;100414.43;126133;1098;23359;-57
2020/12/14 06:45:13;;;;;;;104.20;44.05;;;;;;;3.46;82.39;100414.34;126150;1098;23306;-60
2020/12/14 06:47:53;;;;;;;112.57;49.50;;;;;;;3.49;82.38;100407.20;126155;1098;23311;-58
2020/12/14 06:50:29;;;;;;;;;;;;;;;3.50;82.42;100415.05;126530;1098;23461;-54
2020/12/14 06:53:00;;;;;;;127.43;57.23;;;;;;;3.52;82.36;100409.87;126211;1097;21496;-58
2020/12/14 06:55:48;;;;;;;135.93;60.60;;;;;;;3.55;82.19;100417.31;126298;1097;23506;-57
2020/12/14 06:58:41;;;;;;;130.40;64.97;;;;;;;3.55;82.22;100413.77;126188;1090;23501;-60
2020/12/14 07:01:32;;;;;;;137.40;65.70;;;;;;;3.55;82.17;100419.30;126840;1097;26302;-57
2020/12/14 07:04:01;;;;;;;;;;;;;;;3.55;82.13;100428.36;126994;1097;26416;-58
2020/12/14 07:06:31;;;;;;;130.13;59.70;;;;;;;3.52;82.01;100425.69;126270;1096;21492;-57
2020/12/14 07:09:20;;;;;;;124.50;58.33;;;;;;;3.49;82.19;100421.00;126453;1095;26353;-59
2020/12/14 07:11:50;;;;;;;124.10;55.70;;;;;;;3.47;82.04;100415.92;126384;1097;26817;-55
2020/12/14 07:14:29;;;;;;;121.97;53.98;;;;;;;3.47;81.93;100428.93;127454;1097;23330;-54
2020/12/14 07:17:02;;;;;;;116.05;51.80;;;;;;;3.47;82.34;100424.20;126481;1097;29162;-60
2020/12/14 07:19:38;;;;;;;110.00;50.93;;;;;;;3.49;82.21;100424.55;126658;1097;27948;-56
2020/12/14 07:22:08;;;;;;;116.73;56.53;;;;;;;3.48;82.10;100431.26;126403;1097;24591;-58
2020/12/14 07:24:40;;;;;;;113.17;56.07;;;;;;;3.51;82.26;100421.35;126822;1096;23346;-56
2020/12/14 07:27:11;;;;;;;123.43;56.27;;;;;;;3.53;82.01;100436.29;126554;1097;27963;-56
2020/12/14 07:29:41;;;;;;;128.73;60.13;;;;;;;3.54;82.17;100429.55;126475;1097;23373;-59
2020/12/14 07:32:11;;;;;;;121.23;58.30;;;;;;;3.56;82.48;100440.94;126620;1097;23786;-57
2020/12/14 07:34:51;;;;;;;131.03;58.65;;;;;;;3.53;82.16;100428.01;126458;1090;23817;-59
2020/12/14 07:37:24;;;;;;;131.60;60.45;;;;;;;3.51;82.14;100430.42;126340;1097;23482;-58
2020/12/14 07:39:54;;;;;;;119.67;56.10;;;;;;;3.49;82.41;100419.03;126380;1097;23417;-58
2020/12/14 07:42:29;;;;;;;133.65;63.30;;;;;;;3.47;82.14;100424.20;126439;1097;24626;-59
2020/12/14 07:45:08;;;;;;;158.85;93.10;;;;;;;3.45;82.43;100415.56;126813;1097;23776;-59
2020/12/14 07:47:39;;;;;;;165.07;89.37;;;;;;;3.45;82.31;100423.84;126216;1097;27916;-62
2020/12/14 07:50:11;;;;;;;155.73;83.63;;;;;;;3.46;82.44;100428.14;126775;1097;23550;-57
2020/12/14 07:52:41;;;;;;;144.53;74.07;;;;;;;3.45;82.29;100431.34;126441;1097;23467;-56
2020/12/14 07:55:14;;;;;;;142.20;67.37;;;;;;;3.44;82.56;100444.35;126678;1097;23560;-57
2020/12/14 07:57:45;;;;;;;111.97;55.17;;;;;;;3.43;82.33;100450.31;127275;1097;23446;-56
2020/12/14 08:00:16;;;;;;;127.03;61.17;;;;;;;3.40;82.37;100443.66;126524;1090;23372;-58
2020/12/14 08:02:45;;;;;;;126.30;59.07;;;;;;;3.40;82.63;100446.41;127364;1097;23364;-59
2020/12/14 08:05:16;;;;;;;128.93;63.37;;;;;;;3.43;82.70;100447.55;126512;1096;23429;-58
2020/12/14 08:07:46;;;;;;;;;;;;;;;3.45;82.92;100451.45;126448;1097;29070;-57
2020/12/14 08:10:18;;;;;;;135.67;62.40;;;;;;;3.49;82.84;100451.36;126511;1097;21570;-59
2020/12/14 08:12:48;;;;;;;125.07;60.27;;;;;;;3.53;82.94;100454.83;126499;1097;24934;-59
2020/12/14 08:15:20;;;;;;;117.05;55.12;;;;;;;3.56;83.17;100454.74;127179;1097;23359;-56
2020/12/14 08:17:50;;;;;;;122.27;55.80;;;;;;;3.61;82.93;100448.73;126817;1095;23418;-58
2020/12/14 08:20:28;;;;;;;121.87;58.50;;;;;;;3.66;83.22;100447.46;126490;1097;27548;-57
2020/12/14 08:22:59;;;;;;;118.57;57.67;;;;;;;3.71;83.11;100458.77;126985;1096;23322;-57
2020/12/14 08:25:31;;;;;;;130.00;61.83;;;;;;;3.75;83.05;100453.95;126740;1097;26838;-59
2020/12/14 08:28:03;;;;;;;130.50;65.73;;;;;;;3.81;83.09;100454.99;126481;1097;23372;-58
2020/12/14 08:30:33;;;;;;;143.90;69.83;;;;;;;3.87;83.07;100450.52;126322;1097;23366;-57
2020/12/14 08:33:11;;;;;;;138.07;70.90;;;;;;;3.91;82.83;100459.50;126315;1098;23381;-57
2020/12/14 08:35:42;;;;;;;122.67;63.60;;;;;;;3.96;82.79;100463.74;126436;1097;23379;-56
2020/12/14 08:38:13;;;;;;;119.87;62.05;;;;;;;4.01;83.08;100463.25;126303;1097;24411;-56
2020/12/14 08:40:53;;;;;;;133.15;63.70;;;;;;;4.07;83.23;100467.05;126398;1097;27521;-58
2020/12/14 08:43:24;;;;;;;134.63;65.50;;;;;;;4.09;82.79;100470.95;126556;1097;23877;-57
2020/12/14 08:46:05;;;;;;;134.50;64.00;;;;;;;4.11;83.05;100473.27;126770;1098;25083;-58
2020/12/14 08:48:43;;;;;;;126.70;64.07;;;;;;;4.14;82.90;100480.69;126372;1097;23454;-56
2020/12/14 08:51:15;;;;;;;136.83;68.43;;;;;;;4.17;82.80;100481.82;126823;1096;23415;-56
2020/12/14 08:53:47;;;;;;;130.30;63.13;;;;;;;4.20;82.94;100480.98;126522;1097;23381;-57
2020/12/14 08:56:19;;;;;;;126.97;59.97;;;;;;;4.25;82.89;100484.00;126330;1090;23386;-58
2020/12/14 08:58:50;;;;;;;116.23;55.50;;;;;;;4.29;82.88;100478.38;126776;1097;27873;-60
2020/12/14 09:01:21;;;;;;;119.97;57.50;;;;;;;4.34;82.86;100478.66;126526;1097;26302;-59
2020/12/14 09:03:57;;;;;;;123.07;61.03;;;;;;;4.39;82.86;100466.29;126610;1097;23366;-57
2020/12/14 09:06:29;;;;;;;126.37;62.23;;;;;;;4.42;82.83;100471.75;126816;1096;23642;-57
2020/12/14 09:09:11;;;;;;;117.60;61.30;;;;;;;4.46;82.86;100458.63;126730;1097;24183;-57
2020/12/14 09:11:51;;;;;;;126.17;61.47;;;;;;;4.50;82.79;100469.58;126433;1097;23521;-56
2020/12/14 09:14:23;;;;;;;109.10;51.90;;;;;;;4.53;82.89;100460.44;126795;1097;23478;-56
2020/12/14 09:16:54;;;;;;;107.97;48.53;;;;;;;4.55;82.72;100450.48;126419;1095;23470;-59
2020/12/14 09:19:25;;;;;;;104.23;50.00;;;;;;;4.60;82.55;100449.97;126393;1097;23387;-55
2020/12/14 09:21:55;;;;;;;97.63;45.80;;;;;;;4.63;82.57;100440.03;126406;1097;23433;-57
2020/12/14 09:24:26;;;;;;;101.95;48.23;;;;;;;4.70;82.65;100440.62;126552;1097;23426;-59
2020/12/14 09:27:04;;;;;;;91.65;46.90;;;;;;;4.74;82.62;100441.30;126599;1098;23330;-57
2020/12/14 09:29:34;;;;;;;97.13;47.10;;;;;;;4.79;82.47;100426.96;126326;1097;23327;-58
2020/12/14 09:32:04;;;;;;;85.28;42.60;;;;;;;4.81;82.62;100427.30;126777;1097;26347;-58
2020/12/14 09:34:34;;;;;;;90.85;42.40;;;;;;;4.85;82.53;100427.20;126513;1097;23315;-56
2020/12/14 09:37:05;;;;;;;88.67;42.97;;;;;;;4.88;82.42;100421.56;126340;1098;23365;-58
2020/12/14 09:39:35;;;;;;;90.20;40.43;;;;;;;4.91;82.32;100425.45;126320;1097;23482;-58
2020/12/14 09:42:07;;;;;;;91.50;40.08;;;;;;;4.94;82.43;100427.36;126424;1097;23317;-58
2020/12/14 09:44:38;;;;;;;84.33;38.23;;;;;;;4.99;82.02;100429.58;127061;1097;23460;-59
2020/12/14 09:47:09;;;;;;;75.40;34.45;;;;;;;5.02;81.96;100436.23;126706;1097;23284;-58
2020/12/14 09:49:39;;;;;;;84.60;39.33;;;;;;;5.04;81.88;100434.59;126423;1097;23322;-57
2020/12/14 09:52:09;;;;;;;78.78;38.60;;;;;;;5.07;82.03;100446.78;126244;1097;23318;-58
2020/12/14 09:54:39;;;;;;;88.97;40.65;;;;;;;5.11;82.16;100445.45;126489;1097;26559;-58
2020/12/14 09:57:09;;;;;;;78.40;36.43;;;;;;;5.16;81.99;100433.86;126311;1097;23530;-58
2020/12/14 09:59:38;;;;;;;82.53;36.15;;;;;;;5.20;82.04;100440.07;126450;1097;23530;-60
2020/12/14 10:02:09;;;;;;;72.47;34.70;;;;;;;5.26;82.13;100443.07;126481;1097;23470;-59
2020/12/14 10:04:39;;;;;;;74.65;34.35;;;;;;;5.32;82.03;100438.55;126571;1097;23315;-58
2020/12/14 10:07:10;;;;;;;74.62;33.38;;;;;;;5.35;81.91;100430.16;126553;1097;23530;-60
2020/12/14 10:09:39;;;;;;;67.90;32.00;;;;;;;5.41;81.85;100431.17;126306;1097;26931;-59
2020/12/14 10:12:08;;;;;;;65.47;31.73;;;;;;;5.43;81.43;100425.97;126171;1098;24444;-60
2020/12/14 10:14:38;;;;;;;62.10;30.80;;;;;;;5.47;81.61;100429.41;126401;1097;23366;-57
2020/12/14 10:17:07;;;;;;;71.90;32.23;;;;;;;5.49;81.97;100421.44;126632;1097;26426;-60
2020/12/14 10:19:37;;;;;;;68.65;31.52;;;;;;;5.52;81.63;100417.80;126461;1097;23517;-57
2020/12/14 10:22:07;;;;;;;61.50;28.80;;;;;;;5.56;81.59;100412.16;126766;1097;27919;-60
2020/12/14 10:24:40;;;;;;;72.45;29.48;;;;;;;5.58;81.28;100416.04;126346;1097;25987;-60
2020/12/14 10:27:10;;;;;;;64.73;27.60;;;;;;;5.60;81.33;100410.83;126469;1097;23326;-58
2020/12/14 10:29:40;;;;;;;70.57;31.27;;;;;;;5.63;81.24;100404.40;126474;1090;23326;-60
2020/12/14 10:32:11;;;;;;;66.90;31.12;;;;;;;5.67;81.42;100401.52;126413;1095;24856;-60
2020/12/14 10:34:41;;;;;;;70.40;31.33;;;;;;;5.71;81.42;100402.21;126273;1097;26798;-59
2020/12/14 10:37:11;;;;;;;60.95;29.27;;;;;;;5.75;81.20;100409.17;126397;1097;26776;-57
2020/12/14 10:39:40;;;;;;;58.60;28.80;;;;;;;5.76;80.87;100409.95;126391;1090;23517;-58
2020/12/14 10:42:10;;;;;;;61.30;26.25;;;;;;;5.80;81.03;100404.30;126255;1097;23373;-59
2020/12/14 10:44:39;;;;;;;58.03;26.53;;;;;;;5.82;80.95;100401.86;126294;1097;23342;-57
2020/12/14 10:47:09;;;;;;;59.57;24.37;;;;;;;5.84;80.58;100410.53;126653;1097;24688;-58
2020/12/14 10:49:39;;;;;;;56.27;26.83;;;;;;;5.85;80.75;100406.55;126562;1097;23654;-59
2020/12/14 10:52:10;;;;;;;62.83;28.33;;;;;;;5.87;80.62;100404.90;126651;1097;24753;-58
2020/12/14 10:54:40;;;;;;;57.67;27.77;;;;;;;5.89;81.25;100399.69;126157;1097;23467;-60
2020/12/14 10:57:12;;;;;;;62.63;27.97;;;;;;;5.91;81.02;100399.23;126156;1095;23322;-58
2020/12/14 10:59:42;;;;;;;62.80;27.13;;;;;;;5.94;80.76;100401.89;126182;1097;23379;-58
2020/12/14 11:02:11;;;;;;;58.45;25.02;;;;;;;5.97;80.55;100398.25;126184;1097;27787;-59
2020/12/14 11:04:41;;;;;;;61.40;25.57;;;;;;;6.00;80.98;100402.13;126234;1097;23540;-57
2020/12/14 11:07:14;;;;;;;56.60;25.47;;;;;;;6.02;80.93;100400.45;125986;1097;23408;-58
2020/12/14 11:09:43;;;;;;;57.95;25.10;;;;;;;6.03;80.52;100388.16;126217;1097;23315;-59
2020/12/14 11:12:13;;;;;;;49.60;22.60;;;;;;;6.02;80.33;100391.38;126027;1097;23334;-60
2020/12/14 11:14:43;;;;;;;57.67;27.63;;;;;;;6.02;80.59;100386.59;126539;1097;26559;-59
2020/12/14 11:17:14;;;;;;;60.38;28.02;;;;;;;6.04;80.29;100377.85;126413;1097;23370;-60
2020/12/14 11:19:43;;;;;;;57.43;26.07;;;;;;;6.05;80.61;100371.86;126288;1097;23366;-59
2020/12/14 11:22:13;;;;;;;58.43;26.10;;;;;;;6.06;80.59;100367.84;126228;1096;23287;-59
2020/12/14 11:24:43;;;;;;;59.63;25.50;;;;;;;6.08;80.43;100361.88;126296;1097;23369;-58